CJA3 weather

Morden Airport
Morden, Manitoba, Canada

Public forecast

Using degrees Celsius for public forecast. Weather courtesy of forecast.io.

Closest aviation weather report (METAR) to Morden Airport

Closest report is Walhalla Municipal Airport, 17.3 nm (32.1 km) SSE. Retrieved 2019/12/12 23:35 UTC (13 minutes ago):

K96D 122335Z AUTO 00000KT 10SM BKN027 BKN036 OVC042 M17/M20 A3010 RMK AO2

Closest aviation forecast (TAF) to Morden Airport

Closest forecast is Southport Airport, 42.4 nm (78.6 km) NNW. Retrieved 2019/12/12 18:33 UTC (5 hours ago):

TAF CYPG 121730Z 1218/1306 13008KT P6SM FEW090 SCT240 BECMG 1218/1220 SCT060 BKN090 FM122200 13008KT P6SM BKN030 OVC060 TEMPO 1301/1303 P6SM -SN OVC030 FM130300 13008KT P6SM -SN OVC030 TEMPO 1303/1306 5SM -SN OVC020 RMK NXT FCST BY 130000Z